createdAt,value
2018-07-24T00:00:12.960Z,11.50
2018-07-24T00:02:41.703Z,11.85
2018-07-24T00:05:10.433Z,11.22
2018-07-24T00:07:39.143Z,11.03
2018-07-24T00:10:07.928Z,11.90
2018-07-24T00:12:37.610Z,12.20
2018-07-24T00:15:07.059Z,11.65
2018-07-24T00:17:35.723Z,11.90
2018-07-24T00:20:05.552Z,12.33
2018-07-24T00:22:34.371Z,12.43
2018-07-24T00:25:04.002Z,13.08
2018-07-24T00:27:32.736Z,13.62
2018-07-24T00:30:01.530Z,13.90
2018-07-24T00:32:30.173Z,14.05
2018-07-24T00:34:58.816Z,13.70
2018-07-24T00:37:27.487Z,14.03
2018-07-24T00:39:56.087Z,14.58
2018-07-24T00:42:24.909Z,14.93
2018-07-24T00:44:53.697Z,14.43
2018-07-24T00:47:22.425Z,14.50
2018-07-24T00:49:51.344Z,14.70
2018-07-24T00:52:20.210Z,15.05
2018-07-24T00:54:48.962Z,14.87
2018-07-24T00:57:17.742Z,14.63
2018-07-24T00:59:46.441Z,15.20
2018-07-24T01:02:15.172Z,15.78
2018-07-24T01:04:43.858Z,15.28
2018-07-24T01:07:12.607Z,15.90
2018-07-24T01:09:41.370Z,15.88
2018-07-24T01:12:10.063Z,15.93
2018-07-24T01:14:38.771Z,16.45
2018-07-24T01:17:07.468Z,17.45
2018-07-24T01:19:37.683Z,16.42
2018-07-24T01:22:06.434Z,16.87
2018-07-24T01:24:36.237Z,17.95
2018-07-24T01:27:05.821Z,17.70
2018-07-24T01:29:34.445Z,17.80
2018-07-24T01:32:03.090Z,17.60
2018-07-24T01:34:32.903Z,17.52
2018-07-24T01:37:01.803Z,18.32
2018-07-24T01:39:32.945Z,19.43
2018-07-24T01:42:01.595Z,19.40
2018-07-24T01:44:31.096Z,18.87
2018-07-24T01:46:59.998Z,19.50
2018-07-24T01:49:28.755Z,19.15
2018-07-24T01:51:57.731Z,20.05
2018-07-24T01:54:26.488Z,19.70
2018-07-24T01:56:56.504Z,20.90
2018-07-24T01:59:25.293Z,19.75
2018-07-24T02:01:54.013Z,19.75
2018-07-24T02:04:22.674Z,19.27
2018-07-24T02:06:51.699Z,20.35
2018-07-24T02:09:20.498Z,20.05
2018-07-24T02:11:49.210Z,20.27
2018-07-24T02:14:17.918Z,20.83
2018-07-24T02:16:46.676Z,21.95
2018-07-24T02:19:15.361Z,21.23
2018-07-24T02:21:44.091Z,20.73
2018-07-24T02:24:13.368Z,21.60
2018-07-24T02:26:42.098Z,21.52
2018-07-24T02:29:10.888Z,21.70
2018-07-24T02:31:39.927Z,23.27
2018-07-24T02:34:08.634Z,23.45
2018-07-24T02:36:37.302Z,22.82
2018-07-24T02:39:09.507Z,21.62
2018-07-24T02:41:38.305Z,21.70
2018-07-24T02:44:07.196Z,21.68
2018-07-24T02:46:36.585Z,20.85
2018-07-24T02:49:05.476Z,21.20
2018-07-24T02:51:34.286Z,21.20
2018-07-24T02:54:03.008Z,20.95
2018-07-24T02:56:31.683Z,21.87
2018-07-24T02:59:00.384Z,21.70
2018-07-24T03:01:29.090Z,22.25
2018-07-24T03:03:57.726Z,22.30
2018-07-24T03:06:26.491Z,23.18
2018-07-24T03:08:55.216Z,23.27
2018-07-24T03:11:23.897Z,23.93
2018-07-24T03:13:52.684Z,23.65
2018-07-24T03:16:22.591Z,23.27
2018-07-24T03:18:51.202Z,25.43
2018-07-24T03:21:19.915Z,26.12
2018-07-24T03:23:48.613Z,26.33
2018-07-24T03:26:19.619Z,25.33
2018-07-24T03:28:48.385Z,25.52
2018-07-24T03:31:17.156Z,25.57
2018-07-24T03:33:46.185Z,23.42
2018-07-24T03:36:14.907Z,24.63
2018-07-24T03:38:43.580Z,25.48
2018-07-24T03:41:12.244Z,24.35
2018-07-24T03:43:40.984Z,24.47
2018-07-24T03:46:09.678Z,23.22
2018-07-24T03:48:40.272Z,23.40
2018-07-24T03:51:08.965Z,24.52
2018-07-24T03:53:38.556Z,24.32
2018-07-24T03:56:07.584Z,24.47
2018-07-24T03:58:36.200Z,24.90
2018-07-24T04:01:04.854Z,24.50
2018-07-24T04:03:33.571Z,24.02
2018-07-24T04:06:04.462Z,24.00
2018-07-24T04:08:33.092Z,24.35
2018-07-24T04:11:01.798Z,24.10
2018-07-24T04:13:30.466Z,23.92
2018-07-24T04:15:59.195Z,23.80
2018-07-24T04:18:32.195Z,24.00
2018-07-24T04:21:00.869Z,22.58
2018-07-24T04:23:29.486Z,22.42
2018-07-24T04:25:58.259Z,22.42
2018-07-24T04:28:26.939Z,22.87
2018-07-24T04:30:55.717Z,24.37
2018-07-24T04:33:24.345Z,23.25
2018-07-24T04:35:53.066Z,24.07
2018-07-24T04:38:21.764Z,24.30
2018-07-24T04:40:50.471Z,23.98
2018-07-24T04:43:19.206Z,24.30
2018-07-24T04:45:47.874Z,24.02
2018-07-24T04:48:16.626Z,23.52
2018-07-24T04:50:45.306Z,24.47
2018-07-24T04:53:13.938Z,23.65
2018-07-24T04:55:42.864Z,23.30
2018-07-24T04:58:11.697Z,22.65
2018-07-24T05:00:41.268Z,23.05
2018-07-24T05:03:10.092Z,22.10
2018-07-24T05:05:38.843Z,22.05
2018-07-24T05:08:07.431Z,21.60
2018-07-24T05:10:37.996Z,21.80
2018-07-24T05:13:06.998Z,21.17
2018-07-24T05:15:35.724Z,21.23
2018-07-24T05:18:04.454Z,21.65
2018-07-24T05:20:33.180Z,21.25
2018-07-24T05:23:01.974Z,21.10
2018-07-24T05:25:30.690Z,22.80
2018-07-24T05:27:59.410Z,21.10
2018-07-24T05:30:28.087Z,20.45
2018-07-24T05:32:56.839Z,21.12
2018-07-24T05:35:25.588Z,21.12
2018-07-24T05:37:54.343Z,20.08
2018-07-24T05:40:23.104Z,21.03
2018-07-24T05:42:51.838Z,20.35
2018-07-24T05:45:21.214Z,20.43
2018-07-24T05:47:51.432Z,21.30
2018-07-24T05:50:22.125Z,20.27
2018-07-24T05:52:50.850Z,20.80
2018-07-24T05:55:19.494Z,19.62
2018-07-24T05:57:48.179Z,18.87
2018-07-24T06:00:19.524Z,18.77
2018-07-24T06:02:48.205Z,18.02
2018-07-24T06:05:17.565Z,18.57
2018-07-24T06:07:46.405Z,18.57
2018-07-24T06:10:15.175Z,19.45
2018-07-24T06:12:44.602Z,19.90
2018-07-24T06:15:17.677Z,19.27
2018-07-24T06:17:46.703Z,19.98
2018-07-24T06:20:17.130Z,20.32
2018-07-24T06:22:48.964Z,20.60
2018-07-24T06:25:18.039Z,19.00
2018-07-24T06:27:46.901Z,19.15
2018-07-24T06:30:16.227Z,19.17
2018-07-24T06:32:45.188Z,19.07
2018-07-24T06:35:17.760Z,19.17
2018-07-24T06:37:46.562Z,19.00
2018-07-24T06:40:16.192Z,18.87
2018-07-24T06:42:44.957Z,19.62
2018-07-24T06:45:13.804Z,19.35
2018-07-24T06:47:43.958Z,19.37
2018-07-24T06:50:13.366Z,18.40
2018-07-24T06:52:42.074Z,17.90
2018-07-24T06:55:10.884Z,18.85
2018-07-24T06:57:39.707Z,18.32
2018-07-24T07:00:12.190Z,18.77
2018-07-24T07:02:41.251Z,18.15
2018-07-24T07:05:10.139Z,17.70
2018-07-24T07:07:39.023Z,17.57
2018-07-24T07:10:11.548Z,17.95
2018-07-24T07:12:40.463Z,17.42
2018-07-24T07:15:09.688Z,17.57
2018-07-24T07:17:38.451Z,16.90
2018-07-24T07:20:07.398Z,15.83
2018-07-24T07:22:36.359Z,16.00
2018-07-24T07:25:05.122Z,14.80
2018-07-24T07:27:33.826Z,14.15
2018-07-24T07:30:02.728Z,15.38
2018-07-24T07:32:31.526Z,14.33
2018-07-24T07:35:00.372Z,14.50
2018-07-24T07:37:29.971Z,13.62
2018-07-24T07:39:58.683Z,14.03
2018-07-24T07:42:27.379Z,12.78
2018-07-24T07:44:56.495Z,13.00
2018-07-24T07:47:25.349Z,13.13
2018-07-24T07:49:54.076Z,12.98
2018-07-24T07:52:25.041Z,12.33
2018-07-24T07:54:53.719Z,12.65
2018-07-24T07:57:25.224Z,12.45
2018-07-24T07:59:53.970Z,11.83
2018-07-24T08:02:24.919Z,12.27
2018-07-24T08:04:53.590Z,11.75
2018-07-24T08:07:24.359Z,11.18
2018-07-24T08:09:53.233Z,11.33
2018-07-24T08:12:22.181Z,11.03
2018-07-24T08:14:50.926Z,11.00
2018-07-24T08:17:21.386Z,10.55
2018-07-24T08:19:50.294Z,9.73
2018-07-24T08:22:19.511Z,10.38
2018-07-24T08:24:48.255Z,10.60
2018-07-24T08:27:17.009Z,10.58
2018-07-24T08:29:45.736Z,10.28
2018-07-24T08:32:14.496Z,10.95
2018-07-24T08:34:43.970Z,10.85
2018-07-24T08:37:12.718Z,9.50
2018-07-24T08:39:41.462Z,9.93
2018-07-24T08:42:10.220Z,10.00
2018-07-24T08:44:38.991Z,10.25
2018-07-24T08:47:07.735Z,10.20
2018-07-24T08:54:04.161Z,10.60
2018-07-24T08:56:32.688Z,10.53
2018-07-24T08:59:01.123Z,10.37
2018-07-24T09:01:30.129Z,10.55
2018-07-24T09:04:02.980Z,10.20
2018-07-24T09:06:41.360Z,10.65
2018-07-24T09:09:11.955Z,10.80
2018-07-24T09:11:41.332Z,9.95
2018-07-24T09:14:10.113Z,10.25
2018-07-24T09:16:39.309Z,10.48
2018-07-24T09:19:08.478Z,10.15
2018-07-24T09:21:37.177Z,10.23
2018-07-24T09:24:05.926Z,9.38
2018-07-24T09:26:34.634Z,9.45
2018-07-24T09:29:03.506Z,9.50
2018-07-24T09:31:32.300Z,9.28
2018-07-24T09:34:00.978Z,9.50
2018-07-24T09:36:29.792Z,9.33
2018-07-24T09:39:00.964Z,8.88
2018-07-24T09:41:29.887Z,9.10
2018-07-24T09:43:58.691Z,9.08
2018-07-24T09:46:27.504Z,9.78
2018-07-24T09:48:56.310Z,9.07
2018-07-24T09:51:25.270Z,9.28
2018-07-24T09:53:53.966Z,8.40
2018-07-24T09:56:22.833Z,8.13
2018-07-24T09:58:51.718Z,8.70
2018-07-24T10:01:26.459Z,9.58
2018-07-24T10:03:55.162Z,9.10
2018-07-24T10:06:24.047Z,9.53
2018-07-24T10:08:53.107Z,8.80
2018-07-24T10:11:21.874Z,8.48
2018-07-24T10:13:50.755Z,8.95
2018-07-24T10:16:21.642Z,8.20
2018-07-24T10:18:50.464Z,11.57
2018-07-24T10:21:19.373Z,8.43
2018-07-24T10:23:57.067Z,8.23
2018-07-24T10:26:26.069Z,8.80
2018-07-24T10:28:54.690Z,11.63
2018-07-24T10:31:23.439Z,7.72
2018-07-24T10:33:57.741Z,8.37
2018-07-24T10:36:26.582Z,9.45
2018-07-24T10:38:55.540Z,8.80
2018-07-24T10:41:26.434Z,8.05
2018-07-24T10:43:55.546Z,7.97
2018-07-24T10:46:25.084Z,8.20
2018-07-24T10:48:53.883Z,7.78
2018-07-24T10:51:22.561Z,12.03
2018-07-24T10:53:53.120Z,7.58
2018-07-24T10:56:21.809Z,7.35
2018-07-24T10:58:50.516Z,8.48
2018-07-24T11:01:19.395Z,7.85
2018-07-24T11:03:48.128Z,7.72
2018-07-24T11:06:16.956Z,21.77
2018-07-24T11:08:45.747Z,6.75
2018-07-24T11:11:16.844Z,6.97
2018-07-24T11:13:45.678Z,8.05
2018-07-24T11:16:14.515Z,7.92
2018-07-24T11:18:43.329Z,6.37
2018-07-24T11:21:12.046Z,7.75
2018-07-24T11:23:42.773Z,6.08
2018-07-24T11:26:11.691Z,5.97
2018-07-24T11:28:40.794Z,6.25
2018-07-24T11:31:09.585Z,6.70
2018-07-24T11:33:39.418Z,6.08
2018-07-24T11:36:08.540Z,6.08
2018-07-24T11:38:39.433Z,6.00
2018-07-24T11:41:08.308Z,6.00
2018-07-24T11:43:39.609Z,6.20
2018-07-24T11:46:08.686Z,5.80
2018-07-24T11:48:38.662Z,6.33
2018-07-24T11:51:07.379Z,6.33
2018-07-24T11:53:37.641Z,6.20
2018-07-24T11:56:11.614Z,6.30
2018-07-24T11:58:40.872Z,6.90
2018-07-24T12:01:09.600Z,6.40
2018-07-24T12:03:38.830Z,6.10
2018-07-24T12:06:07.426Z,5.75
2018-07-24T12:08:36.082Z,5.78
2018-07-24T12:11:04.793Z,6.80
2018-07-24T12:13:35.930Z,6.10
2018-07-24T12:16:05.540Z,6.20
2018-07-24T12:18:35.296Z,6.22
2018-07-24T12:21:04.127Z,6.62
2018-07-24T12:23:33.006Z,6.63
2018-07-24T12:26:01.882Z,6.90
2018-07-24T12:28:30.711Z,6.97
2018-07-24T12:30:59.427Z,6.43
2018-07-24T12:33:28.154Z,6.80
2018-07-24T12:35:56.940Z,6.17
2018-07-24T12:38:25.615Z,6.22
2018-07-24T12:40:54.388Z,6.43
2018-07-24T12:43:23.138Z,6.37
2018-07-24T12:45:52.510Z,6.90
2018-07-24T12:48:21.368Z,6.33
2018-07-24T12:50:50.050Z,5.95
2018-07-24T12:53:18.783Z,5.90
2018-07-24T12:55:47.535Z,5.58
2018-07-24T12:58:16.325Z,5.60
2018-07-24T13:00:44.982Z,5.23
2018-07-24T13:03:13.882Z,5.30
2018-07-24T13:05:42.572Z,5.50
2018-07-24T13:08:17.961Z,5.60
2018-07-24T13:10:53.867Z,5.50
2018-07-24T13:13:23.116Z,5.60
2018-07-24T13:15:51.830Z,5.20
2018-07-24T13:18:20.655Z,5.17
2018-07-24T13:20:55.526Z,5.10
2018-07-24T13:23:37.077Z,5.00
2018-07-24T13:26:06.651Z,5.10
2018-07-24T13:28:37.722Z,5.00
2018-07-24T13:31:08.520Z,5.10
2018-07-24T13:33:37.364Z,5.20
2018-07-24T13:36:12.182Z,5.30
2018-07-24T13:38:45.259Z,5.17
2018-07-24T13:41:14.362Z,5.03
2018-07-24T13:43:43.070Z,4.80
2018-07-24T13:46:11.746Z,5.20
2018-07-24T13:48:40.486Z,5.20
2018-07-24T13:52:39.918Z,4.92
2018-07-24T13:55:08.727Z,5.58
2018-07-24T13:57:37.655Z,5.42
2018-07-24T14:00:06.756Z,5.10
2018-07-24T14:02:35.482Z,5.08
2018-07-24T14:05:04.310Z,4.95
2018-07-24T14:07:33.008Z,5.20
2018-07-24T14:10:01.828Z,5.42
2018-07-24T14:12:30.822Z,5.15
2018-07-24T14:14:59.664Z,5.50
2018-07-24T14:17:28.426Z,5.40
2018-07-24T14:19:57.144Z,5.58
2018-07-24T14:22:25.969Z,5.75
2018-07-24T14:24:54.839Z,5.72
2018-07-24T14:27:23.604Z,6.23
2018-07-24T14:29:52.507Z,5.90
2018-07-24T14:32:21.251Z,5.50
2018-07-24T14:34:50.194Z,5.97
2018-07-24T14:37:19.208Z,6.12
2018-07-24T14:39:48.905Z,5.60
2018-07-24T14:42:18.484Z,5.78
2018-07-24T14:44:47.253Z,5.90
2018-07-24T14:47:15.911Z,5.62
2018-07-24T14:49:44.609Z,5.33
2018-07-24T14:52:13.334Z,5.65
2018-07-24T14:54:42.058Z,5.27
2018-07-24T14:57:10.827Z,5.33
2018-07-24T14:59:39.588Z,5.12
2018-07-24T15:02:09.408Z,5.05
2018-07-24T15:04:38.185Z,5.05
2018-07-24T15:07:08.950Z,5.15
2018-07-24T15:09:37.711Z,4.72
2018-07-24T15:12:06.556Z,5.05
2018-07-24T15:14:35.453Z,5.20
2018-07-24T15:17:04.285Z,5.60
2018-07-24T15:19:34.604Z,5.33
2018-07-24T15:22:03.325Z,4.90
2018-07-24T15:24:32.143Z,5.33
2018-07-24T15:27:00.882Z,5.20
2018-07-24T15:29:29.796Z,5.53
2018-07-24T15:31:59.455Z,5.62
2018-07-24T15:34:28.308Z,5.65
2018-07-24T15:36:56.888Z,5.55
2018-07-24T15:39:25.626Z,5.23
2018-07-24T15:41:54.466Z,5.42
2018-07-24T15:44:23.269Z,5.50
2018-07-24T15:46:54.431Z,5.53
2018-07-24T15:49:48.461Z,5.50
2018-07-24T15:52:17.241Z,5.10
2018-07-24T15:54:46.046Z,5.55
2018-07-24T15:57:14.869Z,5.20
2018-07-24T15:59:43.620Z,5.80
2018-07-24T16:02:12.340Z,6.20
2018-07-24T16:04:41.007Z,5.40
2018-07-24T16:07:09.757Z,5.30
2018-07-24T16:09:38.684Z,5.22
2018-07-24T16:12:08.589Z,6.30
2018-07-24T16:14:37.418Z,6.28
2018-07-24T16:17:06.719Z,5.72
2018-07-24T16:19:35.578Z,5.57
2018-07-24T16:22:04.477Z,9.20
2018-07-24T16:24:33.387Z,5.62
2018-07-24T16:27:02.189Z,5.33
2018-07-24T16:29:31.109Z,5.87
2018-07-24T16:32:00.033Z,5.87
2018-07-24T16:34:28.708Z,5.92
2018-07-24T16:36:57.552Z,5.53
2018-07-24T16:39:26.417Z,5.80
2018-07-24T16:41:55.155Z,5.62
2018-07-24T16:44:24.001Z,6.97
2018-07-24T16:46:53.037Z,7.00
2018-07-24T16:49:23.479Z,5.67
2018-07-24T16:51:52.349Z,5.90
2018-07-24T16:54:21.220Z,6.30
2018-07-24T16:56:49.945Z,5.97
2018-07-24T16:59:18.753Z,6.10
2018-07-24T17:01:48.118Z,5.80
2018-07-24T17:04:17.711Z,6.10
2018-07-24T17:06:46.391Z,7.08
2018-07-24T17:09:15.177Z,6.75
2018-07-24T17:11:44.106Z,7.00
2018-07-24T17:14:13.211Z,6.55
2018-07-24T17:16:42.291Z,7.17
2018-07-24T17:19:11.395Z,6.95
2018-07-24T17:21:40.341Z,7.72
2018-07-24T17:24:09.038Z,6.67
2018-07-24T17:26:39.940Z,6.33
2018-07-24T17:29:12.647Z,6.42
2018-07-24T17:31:41.398Z,6.70
2018-07-24T17:34:10.140Z,6.30
2018-07-24T17:36:39.183Z,6.83
2018-07-24T17:39:09.085Z,6.90
2018-07-24T17:41:37.888Z,7.85
2018-07-24T17:44:07.040Z,8.17
2018-07-24T17:46:35.967Z,8.30
2018-07-24T17:49:04.770Z,7.70
2018-07-24T17:51:34.351Z,7.83
2018-07-24T17:54:03.122Z,7.47
2018-07-24T17:56:31.811Z,8.40
2018-07-24T17:59:00.680Z,8.05
2018-07-24T18:01:29.662Z,8.00
2018-07-24T18:03:59.454Z,8.37
2018-07-24T18:06:28.177Z,7.50
2018-07-24T18:08:56.956Z,7.97
2018-07-24T18:11:27.872Z,7.40
2018-07-24T18:13:56.939Z,8.03
2018-07-24T18:16:28.344Z,8.00
2018-07-24T18:18:57.114Z,7.62
2018-07-24T18:21:26.082Z,7.47
2018-07-24T18:23:54.670Z,7.00
2018-07-24T18:26:23.542Z,9.03
2018-07-24T18:28:52.166Z,9.40
2018-07-24T18:31:20.848Z,8.10
2018-07-24T18:36:42.987Z,10.05
2018-07-24T18:39:13.979Z,7.92
2018-07-24T18:41:42.680Z,7.57
2018-07-24T18:44:21.361Z,7.67
2018-07-24T18:46:50.731Z,8.33
2018-07-24T18:49:20.033Z,8.60
2018-07-24T18:51:48.758Z,8.15
2018-07-24T18:54:17.850Z,8.40
2018-07-24T18:56:46.780Z,9.10
2018-07-24T18:59:15.506Z,9.18
2018-07-24T19:01:44.334Z,9.67
2018-07-24T19:04:13.116Z,10.72
2018-07-24T19:06:41.834Z,8.50
2018-07-24T19:09:11.181Z,8.93
2018-07-24T19:11:40.131Z,8.13
2018-07-24T19:14:09.056Z,8.70
2018-07-24T19:16:37.796Z,8.50
2018-07-24T19:19:06.598Z,8.63
2018-07-24T19:21:35.644Z,8.78
2018-07-24T19:24:06.883Z,8.50
2018-07-24T19:26:35.787Z,8.80
2018-07-24T19:29:04.525Z,9.33
2018-07-24T19:31:33.248Z,8.90
2018-07-24T19:34:02.133Z,9.45
2018-07-24T19:36:31.242Z,9.25
2018-07-24T19:39:00.231Z,8.95
2018-07-24T19:41:29.200Z,9.40
2018-07-24T19:43:57.868Z,8.83
2018-07-24T19:46:27.665Z,9.57
2018-07-24T19:48:57.731Z,8.78
2018-07-24T19:51:26.415Z,9.55
2018-07-24T19:53:55.374Z,9.90
2018-07-24T19:56:24.298Z,9.28
2018-07-24T19:58:53.044Z,9.20
2018-07-24T20:01:21.940Z,9.45
2018-07-24T20:03:53.756Z,9.13
2018-07-24T20:06:22.654Z,9.03
2018-07-24T20:08:51.424Z,9.30
2018-07-24T20:11:20.334Z,8.93
2018-07-24T20:13:49.076Z,8.43
2018-07-24T20:16:18.417Z,8.70
2018-07-24T20:18:47.038Z,8.48
2018-07-24T20:21:15.807Z,8.65
2018-07-24T20:23:44.803Z,8.83
2018-07-24T20:26:13.753Z,9.43
2018-07-24T20:28:42.541Z,8.93
2018-07-24T20:31:11.274Z,9.03
2018-07-24T20:33:40.059Z,8.98
2018-07-24T20:36:08.923Z,9.13
2018-07-24T20:38:37.656Z,10.60
2018-07-24T20:41:08.838Z,9.68
2018-07-24T20:43:37.554Z,8.48
2018-07-24T20:46:06.629Z,9.60
2018-07-24T20:48:35.488Z,8.88
2018-07-24T20:51:04.453Z,9.83
2018-07-24T20:53:33.100Z,9.53
2018-07-24T20:56:01.978Z,8.93
2018-07-24T20:58:30.694Z,8.60
2018-07-24T21:00:59.535Z,9.00
2018-07-24T21:03:28.355Z,9.23
2018-07-24T21:05:57.382Z,9.00
2018-07-24T21:08:27.117Z,9.08
2018-07-24T21:10:55.907Z,9.08
2018-07-24T21:13:24.775Z,9.23
2018-07-24T21:15:53.487Z,9.23
2018-07-24T21:18:23.173Z,9.03
2018-07-24T21:20:52.785Z,9.30
2018-07-24T21:23:21.533Z,9.07
2018-07-24T21:25:50.281Z,9.38
2018-07-24T21:28:18.993Z,9.70
2018-07-24T21:30:47.718Z,9.60
2018-07-24T21:33:16.741Z,9.83
2018-07-24T21:35:45.789Z,10.80
2018-07-24T21:38:14.664Z,9.03
2018-07-24T21:40:43.421Z,9.60
2018-07-24T21:43:12.104Z,9.43
2018-07-24T21:45:41.044Z,10.13
2018-07-24T21:48:09.773Z,9.93
2018-07-24T21:50:38.751Z,10.32
2018-07-24T21:53:07.899Z,10.10
2018-07-24T21:55:37.851Z,10.25
2018-07-24T21:58:06.586Z,10.23
2018-07-24T22:00:37.536Z,11.00
2018-07-24T22:03:07.965Z,10.45
2018-07-24T22:05:36.649Z,10.30
2018-07-24T22:08:05.576Z,10.93
2018-07-24T22:10:34.212Z,10.88
2018-07-24T22:13:02.964Z,11.15
2018-07-24T22:15:32.086Z,11.00
2018-07-24T22:18:00.767Z,11.15
2018-07-24T22:20:29.499Z,11.05
2018-07-24T22:22:58.311Z,10.25
2018-07-24T22:25:26.982Z,10.50
2018-07-24T22:27:55.708Z,10.68
2018-07-24T22:30:24.393Z,10.68
2018-07-24T22:32:53.117Z,11.12
2018-07-24T22:35:21.833Z,10.82
2018-07-24T22:37:50.513Z,11.10
2018-07-24T22:40:19.269Z,11.73
2018-07-24T22:42:48.059Z,11.17
2018-07-24T22:45:16.748Z,11.70
2018-07-24T22:47:45.440Z,11.12
2018-07-24T22:50:14.186Z,11.30
2018-07-24T22:52:42.860Z,11.28
2018-07-24T22:55:11.537Z,11.80
2018-07-24T22:57:40.763Z,11.88
2018-07-24T23:00:09.493Z,11.30
2018-07-24T23:02:38.252Z,11.87
2018-07-24T23:05:07.065Z,12.03
2018-07-24T23:07:35.742Z,11.68
2018-07-24T23:10:04.894Z,11.60
2018-07-24T23:12:33.730Z,11.78
2018-07-24T23:15:02.459Z,11.75
2018-07-24T23:17:31.187Z,12.43
2018-07-24T23:19:59.944Z,12.00
2018-07-24T23:22:28.770Z,11.97
2018-07-24T23:24:57.520Z,12.63
2018-07-24T23:27:26.334Z,12.90
2018-07-24T23:29:55.031Z,12.78
2018-07-24T23:32:23.660Z,12.83
2018-07-24T23:34:52.411Z,12.15
2018-07-24T23:37:21.043Z,12.30
2018-07-24T23:39:49.756Z,12.70
2018-07-24T23:42:18.548Z,12.33
2018-07-24T23:44:47.326Z,12.63
2018-07-24T23:47:16.026Z,12.85
2018-07-24T23:49:44.735Z,12.60
2018-07-24T23:52:13.452Z,13.15
2018-07-24T23:54:42.133Z,12.40
2018-07-24T23:57:10.771Z,13.13
2018-07-24T23:59:39.468Z,12.73
